Time;durP1;ratioP1;P1;durP2;ratioP2;P2;SDS_P1;SDS_P2;PMS_P1;PMS_P2;Temp;Humidity;BMP_temperature;BMP_pressure;BME280_temperature;BME280_humidity;BME280_pressure;Samples;Min_cycle;Max_cycle;Signal;HPM_P1;HPM_P2
2023/04/16 00:02:05;;;;;;;71.32;29.40;;;8.40;99.90;;;;;;5054216;28;20559;-72
2023/04/16 00:04:31;;;;;;;77.90;33.22;;;8.30;99.90;;;;;;5054503;28;20044;-73
2023/04/16 00:06:56;;;;;;;79.60;31.92;;;8.40;99.90;;;;;;5054765;28;20042;-73
2023/04/16 00:09:22;;;;;;;85.15;32.97;;;8.30;99.90;;;;;;5054724;28;20531;-72
2023/04/16 00:11:47;;;;;;;69.47;29.75;;;8.30;99.90;;;;;;5054827;28;20048;-72
2023/04/16 00:14:13;;;;;;;78.10;31.20;;;8.30;99.90;;;;;;5054381;28;20805;-72
2023/04/16 00:16:38;;;;;;;86.82;34.15;;;8.30;99.90;;;;;;5072233;28;20044;-72
2023/04/16 00:19:04;;;;;;;91.20;33.85;;;8.30;99.90;;;;;;5054189;28;20047;-73
2023/04/16 00:21:30;;;;;;;94.50;37.08;;;8.30;99.90;;;;;;5054279;28;20165;-73
2023/04/16 00:23:55;;;;;;;97.38;37.90;;;8.30;99.90;;;;;;5072136;28;20090;-73
2023/04/16 00:26:21;;;;;;;89.05;36.90;;;8.30;99.90;;;;;;5054251;28;20044;-72
2023/04/16 00:28:46;;;;;;;88.35;34.63;;;8.20;99.90;;;;;;5072317;28;20033;-73
2023/04/16 00:31:12;;;;;;;91.53;38.92;;;8.20;99.90;;;;;;5054255;28;20446;-73
2023/04/16 00:33:37;;;;;;;86.60;37.22;;;8.20;99.90;;;;;;5071892;28;20051;-72
2023/04/16 00:36:03;;;;;;;98.03;38.75;;;8.20;99.90;;;;;;5053949;28;20043;-73
2023/04/16 00:38:31;;;;;;;96.10;38.25;;;8.20;99.90;;;;;;5037735;28;20132;-73
2023/04/16 00:40:57;;;;;;;78.32;36.97;;;8.10;99.90;;;;;;5071996;28;20037;-73
2023/04/16 00:43:24;;;;;;;98.90;39.72;;;8.10;99.90;;;;;;5054092;28;20524;-73
2023/04/16 00:45:52;;;;;;;108.85;41.28;;;8.20;99.90;;;;;;5053698;28;20042;-73
2023/04/16 00:48:19;;;;;;;97.70;40.95;;;8.10;99.90;;;;;;5071313;28;20040;-73
2023/04/16 00:50:45;;;;;;;114.15;43.58;;;8.20;99.90;;;;;;5054201;28;20048;-73
2023/04/16 00:53:11;;;;;;;97.88;41.22;;;8.20;99.90;;;;;;5071841;28;20049;-73
2023/04/16 00:55:37;;;;;;;102.78;42.80;;;8.20;99.90;;;;;;5071566;28;20033;-73
2023/04/16 00:58:03;;;;;;;94.85;40.95;;;8.20;99.90;;;;;;5054067;28;20550;-72
2023/04/16 01:00:28;;;;;;;105.30;40.88;;;8.20;99.90;;;;;;5053792;28;20048;-73
2023/04/16 01:02:54;;;;;;;94.95;41.63;;;8.20;99.90;;;;;;5053940;28;20500;-72
2023/04/16 01:05:20;;;;;;;84.70;39.88;;;8.20;99.90;;;;;;5053539;28;20115;-73
2023/04/16 01:07:45;;;;;;;83.50;40.97;;;8.20;99.90;;;;;;5053507;28;20043;-72
2023/04/16 01:10:11;;;;;;;91.90;40.65;;;8.10;99.90;;;;;;5053739;28;20400;-73
2023/04/16 01:12:36;;;;;;;103.07;40.25;;;8.10;99.90;;;;;;5071677;28;20047;-73
2023/04/16 01:15:02;;;;;;;95.10;43.20;;;8.20;99.90;;;;;;5053457;28;20033;-72
2023/04/16 01:17:28;;;;;;;110.75;42.95;;;8.20;99.90;;;;;;5054013;28;20074;-72
2023/04/16 01:19:58;;;;;;;110.90;42.22;;;8.10;99.90;;;;;;5053782;28;20513;-72
2023/04/16 01:22:23;;;;;;;117.75;43.20;;;8.10;99.90;;;;;;5053813;28;20044;-72
2023/04/16 01:24:49;;;;;;;99.95;41.33;;;8.10;99.90;;;;;;5053187;28;20086;-73
2023/04/16 01:27:15;;;;;;;117.47;43.42;;;8.10;99.90;;;;;;5053464;28;20091;-72
2023/04/16 01:29:40;;;;;;;111.13;40.67;;;8.00;99.90;;;;;;5053306;28;20094;-73
2023/04/16 01:32:06;;;;;;;97.38;42.97;;;8.10;99.90;;;;;;5053382;28;20044;-73
2023/04/16 01:34:31;;;;;;;102.93;40.72;;;8.00;99.90;;;;;;5071250;28;20115;-73
2023/04/16 01:36:57;;;;;;;80.15;39.22;;;8.10;99.90;;;;;;5053226;28;20040;-73
2023/04/16 01:39:22;;;;;;;99.05;37.60;;;8.10;99.90;;;;;;5053394;28;20388;-72
2023/04/16 01:41:48;;;;;;;70.15;35.03;;;8.00;99.90;;;;;;5053741;28;20434;-73
2023/04/16 01:44:13;;;;;;;97.97;37.33;;;8.10;99.90;;;;;;5071330;28;20051;-73
2023/04/16 01:46:39;;;;;;;96.53;35.28;;;8.00;99.90;;;;;;5071194;28;20044;-73
2023/04/16 01:49:06;;;;;;;75.30;36.55;;;8.00;99.90;;;;;;5052969;28;20041;-73
2023/04/16 01:51:32;;;;;;;86.40;36.60;;;8.00;99.90;;;;;;5053348;28;20037;-72
2023/04/16 01:53:58;;;;;;;77.95;36.28;;;8.00;99.90;;;;;;5053288;28;20115;-72
2023/04/16 01:56:23;;;;;;;101.28;38.72;;;8.10;99.90;;;;;;5053064;28;20116;-72
2023/04/16 01:58:49;;;;;;;94.05;37.47;;;8.00;99.90;;;;;;5054265;28;20040;-73
2023/04/16 02:01:15;;;;;;;83.13;34.30;;;7.90;99.90;;;;;;5057303;28;20460;-73
2023/04/16 02:03:40;;;;;;;83.13;33.75;;;8.00;99.90;;;;;;5075136;28;20102;-73
2023/04/16 02:06:06;;;;;;;88.90;36.55;;;7.90;99.90;;;;;;5056662;28;20036;-73
2023/04/16 02:08:31;;;;;;;79.40;36.05;;;8.00;99.90;;;;;;5056998;28;20036;-73
2023/04/16 02:10:58;;;;;;;85.35;37.03;;;8.00;99.90;;;;;;5074825;28;20041;-73
2023/04/16 02:13:24;;;;;;;66.80;35.22;;;8.00;99.90;;;;;;5056850;28;20231;-73
2023/04/16 02:15:51;;;;;;;70.53;35.58;;;8.00;99.90;;;;;;5056474;28;20504;-72
2023/04/16 02:18:17;;;;;;;75.35;34.67;;;8.00;99.90;;;;;;5074837;28;20037;-73
2023/04/16 02:20:44;;;;;;;64.60;30.45;;;8.00;99.90;;;;;;5056345;28;20039;-73
2023/04/16 02:23:10;;;;;;;67.22;31.20;;;8.00;99.90;;;;;;5056703;28;20032;-73
2023/04/16 02:25:45;;;;;;;64.22;30.45;;;8.00;99.90;;;;;;5039852;28;20550;-72
2023/04/16 02:28:14;;;;;;;62.63;33.58;;;8.00;99.90;;;;;;5056723;28;20048;-73
2023/04/16 02:30:40;;;;;;;66.45;31.52;;;8.00;99.90;;;;;;5056648;28;20040;-73
2023/04/16 02:33:07;;;;;;;70.90;31.23;;;8.00;99.90;;;;;;5056102;28;20047;-73
2023/04/16 02:35:33;;;;;;;68.15;30.50;;;8.10;99.90;;;;;;5056233;28;20072;-73
2023/04/16 02:37:59;;;;;;;78.35;31.83;;;8.10;99.90;;;;;;5056571;28;20040;-72
2023/04/16 02:40:25;;;;;;;82.28;34.58;;;8.10;99.90;;;;;;5056177;28;20116;-73
2023/04/16 02:42:52;;;;;;;86.53;35.97;;;8.10;99.90;;;;;;5074175;28;20128;-73
2023/04/16 02:45:18;;;;;;;80.70;33.55;;;8.10;99.90;;;;;;5055915;28;20044;-73
2023/04/16 02:47:43;;;;;;;89.57;37.92;;;8.00;99.90;;;;;;5056420;28;20615;-73
2023/04/16 02:50:10;;;;;;;98.32;36.10;;;8.10;99.90;;;;;;5056072;28;20415;-73
2023/04/16 02:52:36;;;;;;;84.32;37.22;;;8.10;99.90;;;;;;5074112;28;20510;-73
2023/04/16 02:55:01;;;;;;;73.70;34.25;;;8.10;99.90;;;;;;5055908;28;20048;-73
2023/04/16 02:57:27;;;;;;;86.75;36.92;;;8.10;99.90;;;;;;5055850;28;20123;-73
2023/04/16 02:59:52;;;;;;;104.43;38.67;;;8.20;99.90;;;;;;5073850;28;20032;-73
2023/04/16 03:02:18;;;;;;;103.00;39.83;;;8.10;99.90;;;;;;5073860;28;20036;-73
2023/04/16 03:04:43;;;;;;;93.75;40.90;;;8.20;99.90;;;;;;5055681;28;20040;-73
2023/04/16 03:07:11;;;;;;;100.65;40.22;;;8.20;99.90;;;;;;5055768;28;20047;-73
2023/04/16 03:09:36;;;;;;;96.18;40.90;;;8.20;99.90;;;;;;5055502;28;20132;-73
2023/04/16 03:12:02;;;;;;;106.43;41.40;;;8.10;99.90;;;;;;5055660;28;20124;-73
2023/04/16 03:14:28;;;;;;;100.50;38.08;;;8.20;99.90;;;;;;5055526;28;20040;-73
2023/04/16 03:16:53;;;;;;;88.60;38.17;;;8.20;99.90;;;;;;5055592;28;20040;-73
2023/04/16 03:19:19;;;;;;;91.70;40.90;;;8.20;99.90;;;;;;5055617;28;20408;-73
2023/04/16 03:21:44;;;;;;;86.93;36.72;;;8.20;99.90;;;;;;5073596;28;20165;-73
2023/04/16 03:24:10;;;;;;;98.20;38.05;;;8.20;99.90;;;;;;5055742;28;20040;-73
2023/04/16 03:26:36;;;;;;;99.50;38.20;;;8.20;99.90;;;;;;5055244;28;20044;-73
2023/04/16 03:29:01;;;;;;;99.95;37.58;;;8.20;99.90;;;;;;5055446;28;20041;-73
2023/04/16 03:31:27;;;;;;;84.53;37.22;;;8.10;99.90;;;;;;5055473;28;20044;-73
2023/04/16 03:33:52;;;;;;;86.47;36.25;;;8.20;99.90;;;;;;5055300;28;20411;-73
2023/04/16 03:36:18;;;;;;;90.75;38.17;;;8.10;99.90;;;;;;5055239;28;20044;-73
2023/04/16 03:38:44;;;;;;;85.90;34.70;;;8.20;99.90;;;;;;5054603;28;20040;-73
2023/04/16 03:41:10;;;;;;;80.28;35.58;;;8.10;99.90;;;;;;5054013;28;20456;-72
2023/04/16 03:43:35;;;;;;;87.45;35.47;;;8.10;99.90;;;;;;5054555;28;20041;-73
2023/04/16 03:46:01;;;;;;;85.57;34.65;;;8.10;99.90;;;;;;5054523;28;20040;-73
2023/04/16 03:48:26;;;;;;;75.28;35.03;;;8.10;99.90;;;;;;5054782;28;20503;-72
2023/04/16 03:50:52;;;;;;;86.38;32.60;;;8.10;99.90;;;;;;5055257;28;20052;-72
2023/04/16 03:53:17;;;;;;;86.45;35.10;;;8.10;99.90;;;;;;5072849;28;20102;-72
2023/04/16 03:55:43;;;;;;;80.82;34.17;;;8.10;99.90;;;;;;5054873;28;20123;-73
2023/04/16 03:58:09;;;;;;;87.70;33.80;;;8.00;99.90;;;;;;5072771;28;20072;-72
2023/04/16 04:00:35;;;;;;;71.70;32.83;;;8.00;99.90;;;;;;5054860;28;20094;-73
2023/04/16 04:03:00;;;;;;;87.45;33.85;;;8.10;99.90;;;;;;5054768;28;20040;-73
2023/04/16 04:05:26;;;;;;;75.28;32.40;;;8.10;99.90;;;;;;5054430;28;20041;-73
2023/04/16 04:07:51;;;;;;;85.97;33.17;;;8.10;99.90;;;;;;5072437;28;20048;-73
2023/04/16 04:10:17;;;;;;;85.82;32.97;;;8.00;99.90;;;;;;5054615;28;20407;-73
2023/04/16 04:12:42;;;;;;;85.50;35.45;;;8.10;99.90;;;;;;5054912;28;20132;-73
2023/04/16 04:15:09;;;;;;;80.85;32.65;;;8.00;99.90;;;;;;5054426;28;20037;-73
2023/04/16 04:17:34;;;;;;;81.95;35.08;;;8.10;99.90;;;;;;5072536;28;20048;-73
2023/04/16 04:20:00;;;;;;;81.50;33.58;;;8.00;99.90;;;;;;5054374;28;20114;-73
2023/04/16 04:22:25;;;;;;;80.68;34.35;;;8.00;99.90;;;;;;5053844;28;20412;-73
2023/04/16 04:24:51;;;;;;;76.85;33.83;;;8.00;99.90;;;;;;5054160;28;20415;-73
2023/04/16 04:27:16;;;;;;;79.20;32.20;;;8.00;99.90;;;;;;5072091;28;20036;-73
2023/04/16 04:29:42;;;;;;;77.80;32.83;;;8.10;99.90;;;;;;5054163;28;20097;-73
2023/04/16 04:32:07;;;;;;;84.85;33.40;;;8.00;99.90;;;;;;5072159;28;20094;-73
2023/04/16 04:34:33;;;;;;;72.07;28.60;;;8.00;99.90;;;;;;5071976;28;20044;-73
2023/04/16 04:36:58;;;;;;;60.05;27.08;;;8.10;99.90;;;;;;5037404;28;20496;-73
2023/04/16 04:39:24;;;;;;;71.82;29.10;;;8.00;99.90;;;;;;5054015;28;20043;-73
2023/04/16 04:41:49;;;;;;;59.20;26.20;;;8.10;99.90;;;;;;5054248;28;20047;-73
2023/04/16 04:44:15;;;;;;;63.67;29.73;;;8.20;99.90;;;;;;5053690;28;20071;-73
2023/04/16 04:46:41;;;;;;;52.22;25.85;;;8.20;99.90;;;;;;5053481;28;20076;-73
2023/04/16 04:49:06;;;;;;;70.35;28.95;;;8.10;99.90;;;;;;5083243;22;20123;-72
2023/04/16 04:51:32;;;;;;;61.05;27.40;;;8.20;99.90;;;;;;5092012;28;20040;-71
2023/04/16 04:53:57;;;;;;;63.25;26.90;;;8.20;99.90;;;;;;5091814;28;20036;-72
2023/04/16 04:56:23;;;;;;;65.53;28.70;;;8.20;99.90;;;;;;5092028;28;20038;-72
2023/04/16 04:58:49;;;;;;;68.15;29.27;;;8.20;99.90;;;;;;5092067;28;20496;-71
2023/04/16 05:01:15;;;;;;;55.15;28.50;;;8.20;99.90;;;;;;5091968;28;20036;-72
2023/04/16 05:03:41;;;;;;;63.10;28.13;;;8.10;99.90;;;;;;5095437;28;20081;-71
2023/04/16 05:06:06;;;;;;;66.30;27.40;;;8.00;99.90;;;;;;5096369;28;20038;-72
2023/04/16 05:08:32;;;;;;;54.15;25.35;;;8.00;99.90;;;;;;5075979;28;20079;-72
2023/04/16 05:10:57;;;;;;;51.13;26.65;;;8.10;99.90;;;;;;5090227;28;20036;-71
2023/04/16 05:13:23;;;;;;;50.35;24.38;;;8.00;99.90;;;;;;5091954;28;20047;-72
2023/04/16 05:15:49;;;;;;;48.63;24.33;;;8.00;99.90;;;;;;5091561;28;20641;-72
2023/04/16 05:18:15;;;;;;;48.60;26.10;;;8.00;99.90;;;;;;5090788;28;20067;-71
2023/04/16 05:20:40;;;;;;;42.78;24.27;;;8.00;99.90;;;;;;5091643;28;20127;-71
2023/04/16 05:23:06;;;;;;;50.88;26.38;;;8.00;99.90;;;;;;5090534;28;20036;-71
2023/04/16 05:25:31;;;;;;;46.33;25.42;;;8.00;99.90;;;;;;5091505;28;20117;-71
2023/04/16 05:27:57;;;;;;;54.47;25.55;;;8.10;99.90;;;;;;5091558;28;20043;-71
2023/04/16 05:30:23;;;;;;;53.67;26.08;;;8.00;99.90;;;;;;5091311;28;20148;-71
2023/04/16 05:32:48;;;;;;;56.83;27.40;;;8.00;99.90;;;;;;5092914;28;20047;-71
2023/04/16 05:35:14;;;;;;;82.80;25.98;;;8.00;99.90;;;;;;5094182;28;20048;-72
2023/04/16 05:37:39;;;;;;;66.78;27.67;;;8.00;99.90;;;;;;5094317;28;20054;-71
2023/04/16 05:40:06;;;;;;;55.40;25.88;;;8.10;99.90;;;;;;5095610;28;20210;-71
2023/04/16 05:42:31;;;;;;;64.15;26.85;;;8.00;99.90;;;;;;5095750;28;20040;-71
2023/04/16 05:44:57;;;;;;;60.92;26.58;;;8.20;99.90;;;;;;5095448;28;20040;-71
2023/04/16 05:47:23;;;;;;;55.40;26.88;;;8.10;99.90;;;;;;5095282;28;20483;-72
2023/04/16 05:49:48;;;;;;;52.28;25.48;;;8.10;99.90;;;;;;5095269;28;20040;-71
2023/04/16 05:52:14;;;;;;;53.83;25.83;;;8.10;99.90;;;;;;5095616;28;20093;-71
2023/04/16 05:54:39;;;;;;;58.20;26.92;;;8.20;99.90;;;;;;5095233;28;20052;-71
2023/04/16 05:57:05;;;;;;;46.70;25.02;;;8.10;99.90;;;;;;5095319;28;20028;-71
2023/04/16 05:59:30;;;;;;;53.22;27.30;;;8.10;99.90;;;;;;5095117;28;20495;-71
2023/04/16 06:01:56;;;;;;;57.22;26.33;;;8.20;99.90;;;;;;5093950;28;20043;-71
2023/04/16 06:04:22;;;;;;;58.60;28.02;;;8.20;99.90;;;;;;5093825;28;20127;-71
2023/04/16 06:06:47;;;;;;;60.17;26.52;;;8.30;99.90;;;;;;5094930;28;20136;-71
2023/04/16 06:09:13;;;;;;;56.70;28.15;;;8.20;99.90;;;;;;5093505;28;20067;-71
2023/04/16 06:11:39;;;;;;;55.38;28.50;;;8.40;99.90;;;;;;5093877;28;20407;-71
2023/04/16 06:14:04;;;;;;;54.00;28.48;;;8.40;99.90;;;;;;5093800;28;20093;-71
2023/04/16 06:16:30;;;;;;;61.45;26.48;;;8.40;99.90;;;;;;5094643;28;20044;-71
2023/04/16 06:18:55;;;;;;;65.43;29.05;;;8.40;99.90;;;;;;5094983;28;20036;-71
2023/04/16 06:21:21;;;;;;;55.70;26.65;;;8.40;99.90;;;;;;5095025;28;20032;-71
2023/04/16 06:23:47;;;;;;;70.43;28.75;;;8.40;99.90;;;;;;5094840;28;20384;-71
2023/04/16 06:26:12;;;;;;;56.20;27.00;;;8.50;99.90;;;;;;5093501;28;20040;-70
2023/04/16 06:28:38;;;;;;;66.68;27.42;;;8.50;99.90;;;;;;5094570;28;20043;-70
2023/04/16 06:31:03;;;;;;;61.90;26.17;;;8.60;99.90;;;;;;5093464;28;20119;-70
2023/04/16 06:33:29;;;;;;;73.00;28.65;;;8.50;99.90;;;;;;5095098;28;20043;-70
2023/04/16 06:35:55;;;;;;;66.40;29.30;;;8.60;99.90;;;;;;5094507;28;20454;-70
2023/04/16 06:38:20;;;;;;;57.15;27.25;;;8.70;99.90;;;;;;5093552;28;20051;-71
2023/04/16 06:40:47;;;;;;;63.35;29.38;;;8.70;99.90;;;;;;5093144;28;20040;-70
2023/04/16 06:43:14;;;;;;;65.82;27.83;;;8.70;99.90;;;;;;5094356;28;20063;-70
2023/04/16 06:45:40;;;;;;;66.43;27.98;;;8.70;99.90;;;;;;5093772;28;20072;-70
2023/04/16 06:48:05;;;;;;;51.03;26.27;;;8.80;99.90;;;;;;5093149;28;20125;-70
2023/04/16 06:50:31;;;;;;;56.60;25.50;;;8.80;99.90;;;;;;5089932;28;20083;-70
2023/04/16 06:52:56;;;;;;;49.97;25.73;;;8.80;99.90;;;;;;5093887;28;20403;-70
2023/04/16 06:55:22;;;;;;;58.25;25.88;;;8.80;99.90;;;;;;5092554;28;20692;-70
2023/04/16 06:57:47;;;;;;;50.53;24.15;;;8.80;99.90;;;;;;5084272;28;20048;-70
2023/04/16 07:00:13;;;;;;;53.78;24.83;;;8.70;99.90;;;;;;5093892;28;20028;-70
2023/04/16 07:02:39;;;;;;;54.55;24.92;;;8.70;99.90;;;;;;5094299;28;20047;-70
2023/04/16 07:05:05;;;;;;;52.60;24.10;;;8.80;99.90;;;;;;5094106;28;20123;-70
2023/04/16 07:07:31;;;;;;;58.95;25.63;;;8.80;99.90;;;;;;5093963;28;20094;-70
2023/04/16 07:09:57;;;;;;;49.97;23.15;;;8.80;99.90;;;;;;5093925;28;20534;-70
2023/04/16 07:12:23;;;;;;;57.53;23.63;;;8.90;99.90;;;;;;5093894;28;20051;-70
2023/04/16 07:14:49;;;;;;;55.50;23.77;;;8.90;99.90;;;;;;5093870;28;20040;-70
2023/04/16 07:17:15;;;;;;;50.08;23.48;;;9.00;99.90;;;;;;5093242;28;20078;-70
2023/04/16 07:19:40;;;;;;;59.83;24.48;;;9.00;99.90;;;;;;5092159;28;20089;-71
2023/04/16 07:22:06;;;;;;;52.30;22.70;;;9.10;99.90;;;;;;5093641;28;20040;-71
2023/04/16 07:24:31;;;;;;;47.50;23.85;;;9.10;99.90;;;;;;5093581;28;20043;-70
2023/04/16 07:26:57;;;;;;;49.05;22.23;;;9.20;99.90;;;;;;5093510;28;20523;-71
2023/04/16 07:29:23;;;;;;;47.65;21.45;;;9.20;99.90;;;;;;5092266;28;20738;-71
2023/04/16 07:31:48;;;;;;;48.75;21.48;;;9.30;99.90;;;;;;5075446;28;20072;-71
2023/04/16 07:34:14;;;;;;;46.92;21.23;;;9.30;99.90;;;;;;5093373;28;20044;-71
2023/04/16 07:36:40;;;;;;;49.00;21.77;;;9.30;99.90;;;;;;5092101;28;20408;-71
2023/04/16 07:39:05;;;;;;;42.83;20.90;;;9.30;99.90;;;;;;5091876;28;20044;-70
2023/04/16 07:41:31;;;;;;;44.47;19.23;;;9.30;99.90;;;;;;5091901;28;20032;-71
2023/04/16 07:43:57;;;;;;;45.42;20.85;;;9.40;99.90;;;;;;5093323;28;20126;-70
2023/04/16 07:46:22;;;;;;;53.00;21.20;;;9.50;99.90;;;;;;5093131;28;20136;-70
2023/04/16 07:48:48;;;;;;;46.50;19.63;;;9.50;99.90;;;;;;5092857;28;20035;-70
2023/04/16 07:51:14;;;;;;;41.88;19.30;;;9.50;99.90;;;;;;5093202;28;20044;-70
2023/04/16 07:53:39;;;;;;;55.75;20.58;;;9.60;99.90;;;;;;5093133;28;20036;-70
2023/04/16 07:56:05;;;;;;;38.80;20.80;;;9.60;99.90;;;;;;5090147;28;20040;-70
2023/04/16 07:58:31;;;;;;;43.97;19.52;;;9.70;99.90;;;;;;5089319;28;20058;-71
2023/04/16 08:00:57;;;;;;;48.08;19.60;;;9.70;99.90;;;;;;5090798;28;20036;-71
2023/04/16 08:03:23;;;;;;;46.50;21.25;;;9.80;99.90;;;;;;5092753;28;20040;-70
2023/04/16 08:05:48;;;;;;;37.35;19.23;;;9.90;99.90;;;;;;5091202;28;20403;-71
2023/04/16 08:08:14;;;;;;;46.58;18.45;;;9.90;99.90;;;;;;5087997;28;20032;-72
2023/04/16 08:10:40;;;;;;;43.83;18.55;;;10.00;99.90;;;;;;5082239;28;20047;-71
2023/04/16 08:13:05;;;;;;;41.95;18.77;;;10.10;99.90;;;;;;5093131;28;20043;-71
2023/04/16 08:15:31;;;;;;;39.72;21.60;;;10.10;99.90;;;;;;5093304;28;20063;-71
2023/04/16 08:17:56;;;;;;;46.97;19.67;;;10.20;99.90;;;;;;5092648;28;20403;-71
2023/04/16 08:20:22;;;;;;;42.95;18.52;;;10.20;99.90;;;;;;5092253;28;20036;-71
2023/04/16 08:22:48;;;;;;;44.42;20.60;;;10.40;99.90;;;;;;5092227;28;20040;-70
2023/04/16 08:25:14;;;;;;;40.15;19.63;;;10.40;99.90;;;;;;5091961;28;20032;-71
2023/04/16 08:27:39;;;;;;;39.17;18.27;;;10.60;99.90;;;;;;5092354;28;20043;-71
2023/04/16 08:30:06;;;;;;;40.47;19.80;;;10.70;99.90;;;;;;5092124;28;20039;-71
2023/04/16 08:32:32;;;;;;;42.50;18.63;;;10.90;99.90;;;;;;5092140;28;20067;-71
2023/04/16 08:34:57;;;;;;;39.22;20.08;;;11.00;99.90;;;;;;5090317;28;20530;-71
2023/04/16 08:37:23;;;;;;;33.83;18.85;;;11.00;99.90;;;;;;5091475;28;20112;-71
2023/04/16 08:39:49;;;;;;;35.00;18.77;;;11.00;99.90;;;;;;5090274;28;20083;-71
2023/04/16 08:42:32;;;;;;;32.28;19.52;;;11.20;99.90;;;;;;5091787;28;20071;-71
2023/04/16 08:45:05;;;;;;;;;;;11.30;99.90;;;;;;5092395;28;20071;-71
2023/04/16 08:47:33;;;;;;;42.17;17.25;;;11.50;99.90;;;;;;5091576;28;20042;-70
2023/04/16 08:50:01;;;;;;;50.30;18.58;;;11.40;99.90;;;;;;5091488;28;20123;-71
2023/04/16 08:52:30;;;;;;;35.00;18.00;;;11.40;99.90;;;;;;5091612;28;20046;-70
2023/04/16 08:55:29;;;;;;;37.38;19.50;;;11.50;99.90;;;;;;5091901;28;20040;-71
2023/04/16 08:57:58;;;;;;;36.83;17.70;;;11.70;99.90;;;;;;5062260;28;20052;-69
2023/04/16 09:00:24;;;;;;;41.78;17.25;;;11.80;99.90;;;;;;5090395;28;20040;-70
2023/04/16 09:02:50;;;;;;;33.83;16.73;;;11.80;99.90;;;;;;5090110;28;20032;-70
2023/04/16 09:05:17;;;;;;;38.08;16.80;;;12.10;99.90;;;;;;5091159;28;20044;-70
2023/04/16 09:07:46;;;;;;;32.58;16.50;;;12.20;99.90;;;;;;5090274;28;20040;-70
2023/04/16 09:10:14;;;;;;;30.02;15.85;;;12.40;99.90;;;;;;5091638;28;20081;-70
2023/04/16 09:12:41;;;;;;;31.63;15.57;;;12.50;99.90;;;;;;5091969;28;20423;-70
2023/04/16 09:15:09;;;;;;;29.08;15.90;;;12.50;99.90;;;;;;5090428;28;20097;-70
2023/04/16 09:17:35;;;;;;;32.67;16.05;;;12.50;99.90;;;;;;5091606;28;20542;-71
2023/04/16 09:20:01;;;;;;;32.63;15.52;;;12.60;99.90;;;;;;5091883;28;20082;-71
2023/04/16 09:22:27;;;;;;;27.73;15.55;;;12.50;99.90;;;;;;5090321;28;20047;-71
2023/04/16 09:24:52;;;;;;;27.02;15.38;;;12.70;99.90;;;;;;5091228;28;20396;-71
2023/04/16 09:27:18;;;;;;;29.35;15.40;;;12.70;99.90;;;;;;5091129;28;20418;-70
2023/04/16 09:29:44;;;;;;;29.90;15.63;;;12.90;99.90;;;;;;5090402;28;20036;-71
2023/04/16 09:32:10;;;;;;;24.42;14.52;;;12.90;99.90;;;;;;5090463;28;20115;-70
2023/04/16 09:35:00;;;;;;;27.58;13.48;;;12.80;99.90;;;;;;5090710;28;20037;-71
2023/04/16 09:37:30;;;;;;;24.27;14.25;;;12.70;99.90;;;;;;5067473;28;20044;-70
2023/04/16 09:40:01;;;;;;;21.80;14.57;;;12.90;99.90;;;;;;5091355;28;20085;-72
2023/04/16 09:42:35;;;;;;;27.27;14.57;;;12.80;99.90;;;;;;5091476;28;20032;-71
2023/04/16 09:45:01;;;;;;;34.10;16.05;;;13.00;99.90;;;;;;5093694;28;20048;-71
2023/04/16 09:47:43;;;;;;;26.02;15.65;;;13.10;99.90;;;;;;5091865;28;20046;-70
2023/04/16 09:50:13;;;;;;;27.48;15.60;;;13.10;99.90;;;;;;5090102;28;20118;-71
2023/04/16 09:52:38;;;;;;;28.77;15.63;;;13.20;99.90;;;;;;5090267;28;20497;-70
2023/04/16 09:55:04;;;;;;;28.95;15.95;;;13.20;99.90;;;;;;5091002;28;20043;-70
2023/04/16 09:57:30;;;;;;;32.05;15.55;;;13.30;99.90;;;;;;5091443;28;20093;-72
2023/04/16 10:00:06;;;;;;;24.92;16.98;;;13.30;99.90;;;;;;5091332;28;20040;-71
2023/04/16 10:02:33;;;;;;;29.17;15.60;;;13.30;99.90;;;;;;5088404;28;20047;-70
2023/04/16 10:05:01;;;;;;;23.27;14.32;;;13.30;99.90;;;;;;5090756;28;20051;-70
2023/04/16 10:07:29;;;;;;;26.98;15.10;;;13.30;99.90;;;;;;5091005;28;20067;-70
2023/04/16 10:09:54;;;;;;;25.33;15.10;;;13.50;99.90;;;;;;5091316;28;20036;-71
2023/04/16 10:12:20;;;;;;;26.40;14.95;;;13.60;99.90;;;;;;5091236;28;20459;-71
2023/04/16 10:14:46;;;;;;;24.25;15.45;;;13.70;99.90;;;;;;5089707;28;20043;-70
2023/04/16 10:17:12;;;;;;;31.30;14.70;;;13.80;99.90;;;;;;5091013;28;20491;-70
2023/04/16 10:19:38;;;;;;;23.02;14.63;;;14.00;99.90;;;;;;5091925;28;20032;-70
2023/04/16 10:22:04;;;;;;;26.52;16.27;;;13.90;99.90;;;;;;5093734;28;20055;-70
2023/04/16 10:24:31;;;;;;;23.15;14.55;;;14.10;99.90;;;;;;5094836;28;20036;-70
2023/04/16 10:26:57;;;;;;;23.23;14.45;;;14.00;99.90;;;;;;5094779;28;20114;-71
2023/04/16 10:29:24;;;;;;;21.25;14.25;;;14.00;99.90;;;;;;5094843;28;20047;-71
2023/04/16 10:31:51;;;;;;;25.70;14.82;;;14.00;99.90;;;;;;5093672;28;20431;-71
2023/04/16 10:34:18;;;;;;;22.23;14.70;;;13.90;99.90;;;;;;5094495;28;20044;-71
2023/04/16 10:36:49;;;;;;;23.08;14.70;;;13.80;99.90;;;;;;5094408;28;20085;-71
2023/04/16 10:39:18;;;;;;;22.38;13.98;;;14.00;99.90;;;;;;5094721;28;20137;-71
2023/04/16 10:41:44;;;;;;;25.50;14.02;;;14.10;99.90;;;;;;5094612;28;20032;-71
2023/04/16 10:44:10;;;;;;;21.00;13.75;;;14.30;99.90;;;;;;5093275;28;20055;-71
2023/04/16 10:46:40;;;;;;;23.08;13.60;;;14.30;99.90;;;;;;5092855;28;20044;-71
2023/04/16 10:49:22;;;;;;;24.48;13.77;;;14.20;99.90;;;;;;5093994;28;20039;-71
2023/04/16 10:52:07;;;;;;;29.20;15.45;;;14.30;99.90;;;;;;5093307;28;20067;-71
2023/04/16 10:54:35;;;;;;;20.10;12.70;;;14.50;99.90;;;;;;5092893;28;20118;-71
2023/04/16 10:57:15;;;;;;;21.85;13.05;;;14.50;99.90;;;;;;5094154;28;20280;-71
2023/04/16 10:59:42;;;;;;;22.60;13.38;;;14.50;99.90;;;;;;5093125;28;20051;-71
2023/04/16 11:02:13;;;;;;;23.58;13.90;;;14.60;99.90;;;;;;5093189;28;20395;-71
2023/04/16 11:04:42;;;;;;;27.45;13.50;;;14.50;99.90;;;;;;5094072;28;20118;-71
2023/04/16 11:07:12;;;;;;;21.42;13.55;;;14.60;99.90;;;;;;5092796;28;20040;-71
2023/04/16 11:09:56;;;;;;;26.65;13.00;;;14.50;99.90;;;;;;5092662;28;20044;-71
2023/04/16 11:12:28;;;;;;;28.80;14.25;;;14.50;99.90;;;;;;5094146;28;20051;-72
2023/04/16 11:15:10;;;;;;;26.50;14.48;;;14.60;99.90;;;;;;5093677;28;20446;-71
2023/04/16 11:17:38;;;;;;;21.60;14.43;;;14.60;99.90;;;;;;5092724;28;20032;-71
2023/04/16 11:20:24;;;;;;;21.83;13.25;;;14.70;99.90;;;;;;5092992;28;20040;-71
2023/04/16 11:22:54;;;;;;;20.70;12.80;;;14.70;99.90;;;;;;5085817;28;20042;-71
2023/04/16 11:25:23;;;;;;;21.15;13.13;;;14.50;99.90;;;;;;5091407;28;20109;-71
2023/04/16 11:27:50;;;;;;;22.08;12.50;;;14.70;99.90;;;;;;5091958;28;20044;-71
2023/04/16 11:30:17;;;;;;;21.30;12.15;;;14.60;99.90;;;;;;5093379;28;20119;-71
2023/04/16 11:32:43;;;;;;;20.80;12.52;;;14.60;99.90;;;;;;5093329;28;20047;-71
2023/04/16 11:35:17;;;;;;;23.95;13.73;;;14.60;99.90;;;;;;5093233;28;21215;-70
2023/04/16 11:37:43;;;;;;;24.05;13.73;;;14.60;99.90;;;;;;5092194;28;20123;-70
2023/04/16 11:40:09;;;;;;;26.15;13.82;;;14.50;99.90;;;;;;5093090;28;20032;-70
2023/04/16 11:42:36;;;;;;;28.08;14.88;;;14.50;99.90;;;;;;5093466;28;20508;-70
2023/04/16 11:45:02;;;;;;;22.50;15.20;;;14.40;99.90;;;;;;5093101;28;20408;-70
2023/04/16 11:47:40;;;;;;;21.35;14.27;;;14.30;99.90;;;;;;5092865;28;20040;-71
2023/04/16 11:50:24;;;;;;;25.08;13.23;;;14.30;99.90;;;;;;5091952;28;20403;-70
2023/04/16 11:52:51;;;;;;;;;;;14.30;99.90;;;;;;5093662;28;20039;-70
2023/04/16 11:55:17;;;;;;;33.08;13.93;;;14.20;99.90;;;;;;5092811;28;20294;-70
2023/04/16 11:57:42;;;;;;;21.08;13.52;;;14.10;99.90;;;;;;5091982;28;20032;-70
2023/04/16 12:00:12;;;;;;;27.02;14.63;;;14.20;99.90;;;;;;5092829;28;20051;-70
2023/04/16 12:02:50;;;;;;;26.33;15.95;;;14.30;99.90;;;;;;5092907;28;20036;-70
2023/04/16 12:05:37;;;;;;;21.25;14.35;;;14.40;99.90;;;;;;5092840;28;20047;-70
2023/04/16 12:08:10;;;;;;;30.33;15.68;;;14.30;99.90;;;;;;5092755;28;20050;-70
2023/04/16 12:10:37;;;;;;;;;;;14.30;99.90;;;;;;5092904;28;20507;-70
2023/04/16 12:13:13;;;;;;;29.05;16.27;;;14.10;99.90;;;;;;5092708;28;20292;-70
2023/04/16 12:15:45;;;;;;;27.23;16.83;;;14.10;99.90;;;;;;5092242;28;20040;-70
2023/04/16 12:18:11;;;;;;;31.10;16.60;;;14.30;99.90;;;;;;5091598;28;20462;-70
2023/04/16 12:20:40;;;;;;;31.95;17.88;;;14.30;99.90;;;;;;5091052;28;20124;-70
2023/04/16 12:23:07;;;;;;;27.70;16.88;;;14.40;99.90;;;;;;5090495;28;20096;-70
2023/04/16 12:25:33;;;;;;;29.58;16.73;;;14.50;99.90;;;;;;5091522;28;20044;-71
2023/04/16 12:27:58;;;;;;;28.45;17.23;;;14.40;99.90;;;;;;5090623;28;20062;-70
2023/04/16 12:30:25;;;;;;;25.92;15.52;;;14.10;99.90;;;;;;5091920;28;20040;-70
2023/04/16 12:33:11;;;;;;;26.83;16.25;;;14.20;99.90;;;;;;5091648;28;20511;-70